Terminal Aerodrome Forecast
Issued by NWS

Home | Current Version | Previous Version | Text Only | Print | Product List | Glossary On
Versions: 1 2 3 4 5 6 7 8 9 10 11 12 13 14 15 16 17
401
FTUS41 KALY 242336
TAFPSF
TAF
KPSF 242336Z 2500/2524 26005KT P6SM SCT140
     FM250300 VRB03KT P6SM BKN140
     FM251400 22007KT P6SM VCSH BKN070
     FM252000 24012G18KT P6SM SCT060 PROB30 2520/2524 VRB15G30KT 3SM
      SHRA BR BKN060=

USA.gov is the U.S. government's official web portal to all federal, state and local government web resources and services.